Station: Port Augusta

  Atmospheric Gas Attenuation - ITU Rec 676-11   --------------- db/100km ---------------
Date Time Temp RH % AH g/m3 Dew Point Wind Direction Speed kph Gust kph Barometer mB Rainfall Since 9am 24GHz 47GHz 76GHz 122GHz 134GHz 241GHz
15 01:10 11.8 87 9.16 9.7 11 13 1017.6 0 20.9 27.6 43.4 113.9 109.0 375.4
15 01:00 11.9 87 9.22 9.8 15 19 1017.7 0 21.0 27.7 43.6 114.4 109.8 377.9
15 00:50 12.1 86 9.22 9.8 17 19 1017.5 0 21.0 27.6 43.4 114.1 109.4 376.9
15 00:40 12.6 85 9.4 10.1 17 17 1017.5 0 21.4 27.7 43.9 115.4 111.2 383.2
15 00:30 12.9 86 9.69 10.6 17 22 1017.6 0 22.0 28.1 45.0 118.2 114.8 395.8
15 00:20 13.1 87 9.93 11 19 20 1017.5 0 22.5 28.5 45.9 120.6 117.9 406.5
15 00:10 12.4 90 9.83 10.8 17 19 1017.7 0 22.3 28.6 45.9 120.6 117.6 405.3
15 00:00 11.7 89 9.31 9.9 11 15 1017.8 0 21.2 27.9 44.1 115.7 111.3 383.3
14 23:50 11.7 88 9.21 9.8 11 13 1017.6 0 21.0 27.7 43.6 114.6 109.9 378.4
14 23:40 11.9 88 9.32 10 17 19 1017.7 0 21.2 27.8 44.0 115.5 111.1 382.8
14 23:30 12.1 87 9.33 10 15 17 1017.8 0 21.2 27.8 43.9 115.4 111.0 382.3
14 23:20 12.3 87 9.45 10.2 17 17 1017.7 0 21.5 27.9 44.3 116.4 112.4 387.1
14 23:10 12.2 87 9.39 10.1 15 15 1017.6 0 21.4 27.9 44.1 115.9 111.7 384.7
14 23:00 12.4 86 9.4 10.1 15 19 1017.6 0 21.4 27.8 44.0 115.7 111.5 384.2
14 22:50 12.5 85 9.35 10 15 17 1017.5 0 21.3 27.7 43.8 115.0 110.7 381.2
14 22:40 12.9 84 9.47 10.3 13 15 1017.5 0 21.5 27.8 44.0 115.7 111.8 385.1
14 22:30 13.2 83 9.53 10.4 17 17 1017.4 0 21.6 27.8 44.1 115.9 112.1 386.4
14 22:20 13.4 82 9.53 10.4 17 17 1017.3 0 21.6 27.7 44.0 115.6 111.8 385.4
14 22:10 13.8 81 9.65 10.6 19 22 1017.3 0 21.8 27.8 44.3 116.4 112.9 389.2
14 22:00 13.4 82 9.53 10.4 17 20 1017.5 0 21.6 27.7 44.0 115.7 111.9 385.5
14 21:50 13.5 81 9.47 10.3 17 17 1017.3 0 21.5 27.6 43.7 114.8 110.9 382.0
14 21:40 13.9 80 9.59 10.5 15 17 1017.4 0 21.7 27.7 44.0 115.6 111.9 385.9
14 21:30 14 79 9.53 10.4 15 19 1017.4 0 21.6 27.5 43.7 114.8 111.0 382.5
14 21:20 14.4 78 9.64 10.6 17 17 1017.4 0 21.8 27.6 43.9 115.4 111.9 385.8
14 21:10 14.8 77 9.75 10.8 17 19 1017.4 0 22.0 27.6 44.1 116.0 112.8 389.0
14 21:00 15 76 9.75 10.8 19 22 1017.5 0 22.0 27.6 44.0 115.7 112.5 388.1
14 20:50 14.9 77 9.81 10.9 17 20 1017.2 0 22.1 27.7 44.3 116.5 113.5 391.3
14 20:40 14.4 80 9.89 11 15 19 1017.2 0 22.3 28.0 44.9 118.1 115.3 397.7
14 20:30 14.3 81 9.95 11.1 13 19 1017.1 0 22.4 28.1 45.3 119.0 116.3 401.1
14 20:20 14.6 81 10.14 11.4 15 17 1016.9 0 22.8 28.3 45.9 120.6 118.4 408.6
14 20:10 14.7 81 10.2 11.5 15 17 1016.9 0 23.0 28.4 46.1 121.1 119.1 411.0
14 20:00 14.7 80 10.07 11.3 13 15 1016.9 0 22.7 28.2 45.5 119.7 117.3 404.7
14 19:50 14.9 78 9.94 11.1 11 11 1016.7 0 22.4 27.9 44.8 117.9 115.2 397.4
14 19:40 15.2 78 10.12 11.4 13 15 1016.6 0 22.8 28.1 45.4 119.4 117.2 404.4
14 19:30 15.5 77 10.18 11.5 15 19 1016.7 0 22.9 28.1 45.5 119.6 117.6 405.7
14 19:20 15.8 77 10.36 11.8 15 15 1016.5 0 23.2 28.3 46.1 121.2 119.6 412.7
14 19:10 16 76 10.35 11.8 15 17 1016.5 0 23.2 28.2 45.9 120.7 119.1 411.2
14 19:00 15.9 75 10.16 11.5 15 19 1016.6 0 22.8 27.9 45.2 118.8 116.7 402.7
14 18:50 16.2 73 10.07 11.4 13 15 1016.5 0 22.6 27.7 44.6 117.3 115.0 396.9
14 18:40 16.4 73 10.19 11.6 19 20 1016.3 0 22.8 27.8 45.0 118.3 116.3 401.4
14 18:30 16.2 73 10.07 11.4 17 22 1016.3 0 22.6 27.7 44.6 117.3 115.0 396.8
14 18:20 16.5 72 10.11 11.4 19 22 1016 0 22.7 27.7 44.6 117.3 115.0 397.1
14 18:10 16.7 70 9.95 11.2 19 20 1015.8 0 22.3 27.3 43.8 115.2 112.6 388.5
14 18:00 16.8 68 9.72 10.9 19 28 1015.9 0 21.8 26.9 42.9 112.6 109.4 377.4
14 17:50 17.2 67 9.81 11 22 24 1015.6 0 22.0 26.9 43.0 113.0 110.0 379.5
14 17:40 17.5 64 9.54 10.6 22 26 1015.4 0 21.4 26.4 41.7 109.7 106.0 365.7
14 17:30 17.9 61 9.31 10.3 24 32 1015.4 0 20.9 25.9 40.6 106.7 102.5 353.5
14 17:20 18.1 60 9.27 10.2 24 28 1015.1 0 20.8 25.8 40.4 106.0 101.7 350.7
14 17:10 18.6 56 8.91 9.7 32 35 1015 0 20.0 25.1 38.7 101.6 96.5 332.6
14 17:00 19.2 53 8.74 9.4 32 41 1015 0 19.6 24.7 37.8 99.2 93.7 322.7
14 16:50 19.9 49 8.42 8.9 32 35 1014.9 0 18.9 24.0 36.3 95.1 89.0 306.3
14 16:40 20.1 47 8.17 8.4 26 28 1014.7 0 18.4 23.6 35.3 92.4 85.7 294.9
14 16:30 20.2 46 8.04 8.2 20 28 1014.8 0 18.1 23.3 34.8 91.1 84.1 289.2
14 16:20 20.2 45 7.87 7.9 20 24 1014.6 0 17.7 23.1 34.2 89.4 82.1 282.1
14 16:10 20 45 7.78 7.7 20 26 1014.5 0 17.6 23.0 33.9 88.8 81.2 279.0
14 16:00 20.2 43 7.52 7.2 20 28 1014.6 0 17.0 22.6 32.9 86.1 78.0 267.7
14 15:50 21 41 7.51 7.3 22 24 1014.5 0 17.0 22.4 32.5 85.2 77.1 264.6
14 15:40 20.2 42 7.34 6.9 20 22 1014.5 0 16.6 22.3 32.3 84.4 75.9 260.3
14 15:30 21.1 40 7.37 7 24 32 1014.5 0 16.7 22.2 32.0 83.8 75.4 258.7
14 15:20 20.4 41 7.25 6.7 24 30 1014.4 0 16.4 22.1 31.9 83.3 74.6 256.0
14 15:10 20.8 42 7.6 7.4 22 28 1014.4 0 17.2 22.5 32.9 86.2 78.3 268.9
14 15:00 20.4 41 7.25 6.7 30 37 1014.5 0 16.4 22.2 31.9 83.4 74.6 256.0
14 14:50 21 39 7.14 6.5 28 33 1014.3 0 16.2 21.8 31.3 81.7 72.8 249.7
14 14:40 21.3 40 7.46 7.2 28 35 1014.3 0 16.8 22.2 32.2 84.4 76.2 261.6
14 14:30 21.2 42 7.78 7.8 26 33 1014.3 0 17.5 22.7 33.4 87.5 80.0 274.9
14 14:20 20.9 42 7.65 7.5 24 28 1014.3 0 17.3 22.6 33.1 86.6 78.8 270.6
14 14:10 20.8 43 7.79 7.8 28 32 1014.3 0 17.6 22.8 33.6 88.0 80.5 276.6
14 14:00 20.5 44 7.83 7.8 28 35 1014.4 0 17.7 23.0 33.9 88.7 81.3 279.3
14 13:50 20.4 46 8.14 8.4 30 32 1014.3 0 18.3 23.4 35.0 91.8 85.0 292.5
14 13:40 20.8 46 8.33 8.8 30 37 1014.5 0 18.7 23.6 35.5 93.2 86.9 299.0
14 13:30 20.2 48 8.39 8.8 26 33 1014.8 0 18.8 23.9 36.0 94.5 88.3 303.8
14 13:20 20.1 46 8 8.1 32 37 1014.8 0 18.0 23.3 34.7 90.8 83.7 287.8
14 13:10 20.8 47 8.51 9.1 32 35 1014.9 0 19.1 23.9 36.2 95.0 89.1 306.6
14 13:00 20 47 8.12 8.4 26 35 1015.3 0 18.3 23.5 35.2 92.1 85.3 293.3
14 12:50 20 50 8.64 9.3 26 30 1015.2 0 19.4 24.3 37.1 97.2 91.6 315.3
14 12:40 19.6 50 8.44 8.9 26 28 1015.5 0 19.0 24.1 36.5 95.7 89.6 308.4
14 12:30 19.9 48 8.25 8.6 24 35 1015.8 0 18.6 23.8 35.7 93.6 87.0 299.3
14 12:20 19.5 52 8.73 9.4 20 24 1016 0 19.6 24.6 37.7 98.8 93.3 321.3
14 12:10 18.8 52 8.37 8.7 26 32 1016.2 0 18.9 24.2 36.7 96.1 89.7 308.7
14 12:00 19.3 53 8.79 9.5 22 32 1016.3 0 19.7 24.8 38.0 99.7 94.3 324.8
14 11:50 18.3 57 8.91 9.6 24 28 1016.5 0 20.0 25.2 38.9 102.2 97.0 334.2
14 11:40 19.2 54 8.9 9.7 32 39 1016.6 0 20.0 25.0 38.5 100.9 95.8 330.1
14 11:30 17.7 59 8.9 9.6 30 39 1016.7 0 20.0 25.4 39.2 102.9 97.7 336.4
14 11:20 18 60 9.21 10.1 26 32 1016.8 0 20.7 25.8 40.3 105.7 101.2 348.9
14 11:10 17.7 60 9.05 9.8 30 35 1016.8 0 20.4 25.6 39.8 104.4 99.6 343.1
14 11:00 17.9 61 9.31 10.3 30 33 1016.8 0 20.9 26.0 40.7 106.8 102.6 353.9
14 10:50 18.5 60 9.49 10.6 30 33 1016.9 0 21.2 26.1 41.1 107.9 104.2 359.3
14 10:40 18.5 62 9.81 11.1 22 26 1017 0 21.9 26.6 42.4 111.3 108.3 373.7
14 10:30 18.3 62 9.69 10.9 17 22 1017.1 0 21.7 26.5 42.0 110.3 107.0 369.3
14 10:20 17.9 62 9.47 10.5 17 20 1017 0 21.2 26.2 41.3 108.5 104.7 361.1
14 10:10 17.2 63 9.23 10.1 19 20 1017.1 0 20.8 26.1 40.8 107.0 102.6 353.5
14 10:00 17.4 66 9.78 11 9 13 1017.4 0 21.9 26.9 42.8 112.6 109.5 377.7
14 09:50 16.7 69 9.81 11 9 11 1017.3 0 22.0 27.1 43.3 113.9 110.9 382.5
14 09:40 15.6 72 9.57 10.6 11 11 1017.2 0 21.6 27.1 43.0 112.9 109.2 376.6
14 09:30 15.3 73 9.53 10.5 11 13 1017.2 0 21.5 27.1 43.0 112.8 109.1 376.1
14 09:20 14.7 75 9.44 10.3 15 15 1017.2 0 21.3 27.1 42.9 112.7 108.7 374.8
14 09:10 14.3 75 9.21 9.9 15 15 1017.1 0 20.9 26.9 42.2 110.8 106.2 365.8
14 09:00 14.2 75 9.16 9.8 15 19 1017.2 0 20.8 26.8 42.0 110.4 105.7 363.9
14 08:50 14.2 75 9.16 9.8 13 15 1016.9 0.4 20.8 26.8 42.0 110.3 105.6 363.9
14 08:40 14.1 76 9.22 9.9 15 17 1016.9 0.4 20.9 27.0 42.3 111.1 106.6 367.1

Last Refresh: 15-Jun-2024 01:22:14

Bureau of Meteorology